Time;durP1;ratioP1;P1;durP2;ratioP2;P2;SDS_P1;SDS_P2;PMS_P1;PMS_P2;Temp;Humidity;BMP_temperature;BMP_pressure;BME280_temperature;BME280_humidity;BME280_pressure;Samples;Min_cycle;Max_cycle;Signal;HPM_P1;HPM_P2
2024/03/02 00:00:43;;;;;;;2.17;0.83;;;;;;;8.16;100.00;99792.03;5069784;28;20024;-39
2024/03/02 00:03:11;;;;;;;1.45;0.80;;;;;;;8.23;100.00;99789.16;5069822;28;20380;-40
2024/03/02 00:05:36;;;;;;;2.38;0.80;;;;;;;8.25;100.00;99800.53;5065854;28;20358;-40
2024/03/02 00:08:05;;;;;;;1.55;0.70;;;;;;;8.32;100.00;99816.53;5056273;28;20039;-40
2024/03/02 00:10:39;;;;;;;3.75;1.08;;;;;;;8.36;100.00;99834.72;5056230;28;20029;-40
2024/03/02 00:13:06;;;;;;;1.73;0.70;;;;;;;8.39;100.00;99834.22;5056962;28;20390;-40
2024/03/02 00:15:51;;;;;;;2.10;0.70;;;;;;;8.41;100.00;99874.41;5056050;28;20024;-40
2024/03/02 00:18:19;;;;;;;1.33;0.50;;;;;;;8.25;100.00;99902.88;5056064;28;20025;-40
2024/03/02 00:20:45;;;;;;;0.80;0.40;;;;;;;8.07;100.00;99903.84;5056078;28;20037;-40
2024/03/02 00:23:15;;;;;;;0.65;0.30;;;;;;;7.86;100.00;99907.19;5055688;28;20016;-40
2024/03/02 00:25:42;;;;;;;0.80;0.38;;;;;;;7.70;100.00;99906.00;5056438;28;20029;-39
2024/03/02 00:28:17;;;;;;;0.88;0.45;;;;;;;7.53;100.00;99915.84;5055877;28;20346;-39
2024/03/02 00:30:43;;;;;;;0.30;0.30;;;;;;;7.39;100.00;99909.88;5055816;28;20120;-40
2024/03/02 00:33:08;;;;;;;0.43;0.30;;;;;;;7.30;100.00;99909.38;5055814;28;20021;-40
2024/03/02 00:35:34;;;;;;;0.47;0.30;;;;;;;7.21;100.00;99891.94;5055459;28;20021;-39
2024/03/02 00:38:05;;;;;;;0.43;0.30;;;;;;;7.22;100.00;99905.19;5055413;28;20020;-39
2024/03/02 00:40:30;;;;;;;1.60;0.40;;;;;;;7.13;100.00;99879.66;5056480;28;20319;-40
2024/03/02 00:42:56;;;;;;;0.20;0.20;;;;;;;7.14;100.00;99915.44;5055358;28;20050;-39
2024/03/02 00:45:21;;;;;;;0.43;0.30;;;;;;;6.97;100.00;99894.59;5055233;28;20309;-40
2024/03/02 00:47:47;;;;;;;1.45;0.30;;;;;;;7.08;100.00;99913.69;5055209;28;20020;-40
2024/03/02 00:50:13;;;;;;;0.87;0.40;;;;;;;7.05;100.00;99922.19;5055273;28;20053;-39
2024/03/02 00:52:40;;;;;;;0.77;0.30;;;;;;;7.03;100.00;99925.13;5055662;28;20470;-39
2024/03/02 00:55:06;;;;;;;0.80;0.40;;;;;;;7.05;100.00;99922.19;5055662;28;20037;-39
2024/03/02 00:57:34;;;;;;;0.60;0.30;;;;;;;7.01;100.00;99921.00;5055806;28;20445;-39
2024/03/02 01:00:00;;;;;;;0.47;0.20;;;;;;;6.91;100.00;99911.63;5055523;28;20029;-39
2024/03/02 01:02:26;;;;;;;0.30;0.30;;;;;;;6.86;100.00;99914.19;5055145;28;20024;-39
2024/03/02 01:04:52;;;;;;;0.40;0.40;;;;;;;6.92;100.00;99912.44;5055702;28;20025;-39
2024/03/02 01:07:17;;;;;;;0.32;0.30;;;;;;;6.93;100.00;99914.13;5054804;28;20100;-39
2024/03/02 01:09:43;;;;;;;0.30;0.30;;;;;;;6.88;100.00;99911.25;5055085;28;20025;-39
2024/03/02 01:12:08;;;;;;;0.43;0.30;;;;;;;6.89;100.00;99932.56;5054930;28;20013;-40
2024/03/02 01:14:35;;;;;;;0.73;0.30;;;;;;;6.84;100.00;99931.63;5055689;28;20055;-39
2024/03/02 01:17:03;;;;;;;;;;;;;;;6.91;100.00;99935.00;5054850;28;20275;-39
2024/03/02 01:19:28;;;;;;;0.30;0.30;;;;;;;6.83;100.00;99916.50;5054378;28;19912;-39
2024/03/02 01:21:54;;;;;;;0.30;0.30;;;;;;;6.81;100.00;99910.56;5054812;28;20108;-40
2024/03/02 01:24:19;;;;;;;0.40;0.30;;;;;;;6.83;100.00;99917.34;5055336;28;20067;-39
2024/03/02 01:26:44;;;;;;;0.27;0.20;;;;;;;6.83;100.00;99925.41;5054798;28;20364;-39
2024/03/02 01:29:10;;;;;;;0.30;0.30;;;;;;;6.82;100.00;99920.25;5055007;28;20024;-39
2024/03/02 01:31:35;;;;;;;0.87;0.37;;;;;;;6.80;100.00;99909.75;5054937;28;20020;-40
2024/03/02 01:34:00;;;;;;;0.87;0.50;;;;;;;6.80;100.00;99928.56;5055100;28;20021;-40
2024/03/02 01:36:26;;;;;;;1.10;0.33;;;;;;;6.82;100.00;99920.25;5054729;28;20054;-40
2024/03/02 01:38:51;;;;;;;0.60;0.30;;;;;;;6.86;100.00;99924.13;5054783;28;20028;-40
2024/03/02 01:41:16;;;;;;;0.40;0.30;;;;;;;6.84;100.00;99919.00;5054980;28;20390;-40
2024/03/02 01:43:42;;;;;;;0.40;0.30;;;;;;;6.87;100.00;99920.38;5055023;28;20037;-40
2024/03/02 01:46:07;;;;;;;0.33;0.33;;;;;;;6.89;100.00;99929.06;5054409;28;20025;-40
2024/03/02 01:48:34;;;;;;;0.60;0.37;;;;;;;6.86;100.00;99926.81;5054365;28;20368;-40
2024/03/02 01:50:59;;;;;;;0.32;0.30;;;;;;;6.88;100.00;99935.44;5054192;28;20400;-39
2024/03/02 01:53:24;;;;;;;1.50;0.30;;;;;;;6.88;100.00;99927.38;5054283;28;20033;-40
2024/03/02 01:55:50;;;;;;;0.30;0.30;;;;;;;6.89;100.00;99910.25;5054826;28;20048;-40
2024/03/02 01:58:16;;;;;;;0.30;0.30;;;;;;;6.86;100.00;99916.06;5054701;28;20075;-40
2024/03/02 02:00:41;;;;;;;;;;;;;;;6.97;100.00;99924.16;5054850;28;20275;-40
2024/03/02 02:03:07;;;;;;;0.50;0.40;;;;;;;6.78;100.00;99911.81;5053797;28;19916;-40
2024/03/02 02:05:32;;;;;;;0.40;0.30;;;;;;;6.90;100.00;99936.06;5054037;28;20072;-40
2024/03/02 02:07:58;;;;;;;0.50;0.30;;;;;;;6.86;100.00;99926.81;5054267;28;20017;-40
2024/03/02 02:10:24;;;;;;;0.77;0.40;;;;;;;6.87;100.00;99920.38;5053653;28;20377;-40
2024/03/02 02:12:49;;;;;;;0.22;0.20;;;;;;;6.84;100.00;99932.44;5053603;28;20025;-40
2024/03/02 02:15:25;;;;;;;1.67;0.37;;;;;;;6.81;100.00;99922.13;5053832;28;20100;-40
2024/03/02 02:17:51;;;;;;;0.43;0.30;;;;;;;6.79;100.00;99915.34;5053492;28;20024;-40
2024/03/02 02:20:16;;;;;;;0.82;0.40;;;;;;;6.84;100.00;99928.91;5054085;28;20029;-40
2024/03/02 02:23:02;;;;;;;0.40;0.38;;;;;;;6.84;100.00;99927.06;5053981;28;20131;-40
2024/03/02 02:25:29;;;;;;;0.63;0.28;;;;;;;6.78;100.00;99925.25;5054010;28;20414;-40
2024/03/02 02:27:55;;;;;;;0.50;0.30;;;;;;;6.79;100.00;99920.72;5054147;28;20025;-40
2024/03/02 02:30:26;;;;;;;0.43;0.30;;;;;;;6.73;100.00;99911.69;5053427;28;20025;-40
2024/03/02 02:32:52;;;;;;;0.35;0.30;;;;;;;6.76;100.00;99919.31;5053255;28;20591;-40
2024/03/02 02:35:17;;;;;;;2.75;0.40;;;;;;;6.71;100.00;99927.22;5053575;28;20039;-40
2024/03/02 02:37:43;;;;;;;0.85;0.30;;;;;;;6.70;100.00;99923.72;5054058;28;20030;-40
2024/03/02 02:40:09;;;;;;;0.38;0.30;;;;;;;6.69;100.00;99924.78;5053879;28;20040;-40
2024/03/02 02:42:34;;;;;;;0.60;0.20;;;;;;;6.68;100.00;99923.13;5053712;28;20020;-40
2024/03/02 02:44:59;;;;;;;1.13;0.30;;;;;;;6.69;100.00;99916.72;5053516;28;20036;-40
2024/03/02 02:47:26;;;;;;;0.47;0.30;;;;;;;6.70;100.00;99922.91;5053135;28;20039;-40
2024/03/02 02:49:51;;;;;;;;;;;;;;;6.78;100.00;99924.44;5054125;28;20102;-40
2024/03/02 02:52:17;;;;;;;2.22;0.75;;;;;;;6.68;100.00;99911.56;5053622;28;20346;-40
2024/03/02 02:54:42;;;;;;;0.50;0.30;;;;;;;6.65;100.00;99910.16;5053183;28;20473;-40
2024/03/02 02:57:08;;;;;;;0.50;0.30;;;;;;;6.62;100.00;99942.84;5053895;28;20056;-40
2024/03/02 02:59:35;;;;;;;0.27;0.23;;;;;;;6.62;100.00;99942.03;5053635;28;20071;-40
2024/03/02 03:02:01;;;;;;;1.27;0.57;;;;;;;6.63;100.00;99932.91;5053262;28;20025;-40
2024/03/02 03:04:26;;;;;;;0.47;0.27;;;;;;;6.63;100.00;99922.97;5053932;28;20048;-40
2024/03/02 03:06:51;;;;;;;0.47;0.20;;;;;;;6.62;100.00;99931.28;5053593;28;20035;-39
2024/03/02 03:09:17;;;;;;;0.37;0.30;;;;;;;6.60;100.00;99938.75;5053644;28;20048;-40
2024/03/02 03:11:42;;;;;;;0.97;0.50;;;;;;;6.58;100.00;99935.47;5053256;28;20033;-40
2024/03/02 03:14:07;;;;;;;0.73;0.30;;;;;;;6.61;100.00;99932.31;5053139;28;20024;-40
2024/03/02 03:16:33;;;;;;;0.40;0.20;;;;;;;6.61;100.00;99941.22;5053189;28;20025;-40
2024/03/02 03:18:58;;;;;;;1.50;0.50;;;;;;;6.58;100.00;99944.34;5053690;28;20024;-40
2024/03/02 03:21:23;;;;;;;0.50;0.40;;;;;;;6.53;100.00;99929.94;5053644;28;20024;-40
2024/03/02 03:23:49;;;;;;;0.73;0.30;;;;;;;6.56;100.00;99940.25;5053936;28;20029;-40
2024/03/02 03:26:14;;;;;;;0.47;0.30;;;;;;;6.59;100.00;99950.56;5052849;28;20025;-40
2024/03/02 03:28:39;;;;;;;0.60;0.37;;;;;;;6.59;100.00;99948.69;5053116;28;20032;-39
2024/03/02 03:31:05;;;;;;;1.50;0.40;;;;;;;6.58;100.00;99952.41;5053355;28;20078;-39
2024/03/02 03:33:30;;;;;;;0.53;0.23;;;;;;;6.57;100.00;99941.88;5053383;28;20247;-40
2024/03/02 03:35:55;;;;;;;0.67;0.30;;;;;;;6.58;100.00;99944.34;5052652;28;20082;-40
2024/03/02 03:38:21;;;;;;;0.50;0.20;;;;;;;6.52;100.00;99941.75;5053299;28;20445;-40
2024/03/02 03:40:47;;;;;;;0.50;0.37;;;;;;;6.48;100.00;99930.63;5053371;28;20453;-39
2024/03/02 03:43:12;;;;;;;0.50;0.20;;;;;;;6.46;100.00;99943.47;5056992;28;20025;-39
2024/03/02 03:45:38;;;;;;;1.35;0.40;;;;;;;6.54;100.00;99961.13;5056718;28;20036;-40
2024/03/02 03:48:03;;;;;;;0.50;0.23;;;;;;;6.52;100.00;99957.88;5056440;28;20032;-40
2024/03/02 03:50:29;;;;;;;0.90;0.35;;;;;;;6.52;100.00;99950.63;5056660;28;20052;-40
2024/03/02 03:52:54;;;;;;;0.97;0.40;;;;;;;6.55;100.00;99952.03;5056612;28;20045;-40
2024/03/02 03:55:19;;;;;;;0.30;0.20;;;;;;;6.56;100.00;99942.94;5057390;28;20044;-40
2024/03/02 03:57:44;;;;;;;0.57;0.30;;;;;;;6.52;100.00;99950.63;5057334;28;20082;-40
2024/03/02 04:00:11;;;;;;;1.20;0.50;;;;;;;6.53;100.00;99956.81;5056447;28;20039;-40
2024/03/02 04:02:36;;;;;;;1.08;0.25;;;;;;;6.51;100.00;99954.34;5056345;28;20116;-40
2024/03/02 04:05:04;;;;;;;0.52;0.30;;;;;;;6.47;100.00;99947.78;5056904;28;20037;-40
2024/03/02 04:07:30;;;;;;;1.27;0.40;;;;;;;6.49;100.00;99958.31;5056228;28;20059;-40
2024/03/02 04:09:55;;;;;;;1.40;0.40;;;;;;;6.48;100.00;99959.34;5056547;28;20049;-40
2024/03/02 04:12:21;;;;;;;0.43;0.33;;;;;;;6.50;100.00;99966.16;5055929;28;20124;-40
2024/03/02 04:14:46;;;;;;;0.73;0.60;;;;;;;6.53;100.00;99964.88;5056386;28;20024;-40
2024/03/02 04:17:11;;;;;;;0.97;0.40;;;;;;;6.53;100.00;99965.69;5056089;28;20472;-40
2024/03/02 04:19:37;;;;;;;0.43;0.30;;;;;;;6.49;100.00;99945.72;5056360;28;20135;-40
2024/03/02 04:22:02;;;;;;;1.90;0.53;;;;;;;6.58;100.00;99959.63;5055996;28;20654;-40
2024/03/02 04:24:28;;;;;;;1.77;0.60;;;;;;;6.53;100.00;99951.44;5056834;28;20064;-40
2024/03/02 04:26:53;;;;;;;1.33;0.70;;;;;;;6.60;100.00;99962.94;5055950;28;20021;-40
2024/03/02 04:29:18;;;;;;;0.53;0.40;;;;;;;6.58;100.00;99956.94;5055877;28;20373;-40
2024/03/02 04:31:44;;;;;;;1.80;0.53;;;;;;;6.46;100.00;99943.47;5056123;28;20024;-40
2024/03/02 04:34:10;;;;;;;0.63;0.40;;;;;;;6.53;100.00;99954.13;5056235;28;20017;-39
2024/03/02 04:36:36;;;;;;;0.70;0.40;;;;;;;6.47;100.00;99961.22;5055641;28;20078;-39
2024/03/02 04:39:02;;;;;;;;;;;;;;;6.54;100.00;99963.81;5056854;28;20025;-39
2024/03/02 04:41:27;;;;;;;1.38;0.40;;;;;;;6.45;100.00;99971.38;5055293;28;19905;-40
2024/03/02 04:43:53;;;;;;;0.38;0.32;;;;;;;6.43;100.00;99970.78;5056106;28;20102;-40
2024/03/02 04:46:18;;;;;;;0.30;0.30;;;;;;;6.42;100.00;99967.25;5055544;28;20025;-40
2024/03/02 04:48:44;;;;;;;0.97;0.40;;;;;;;6.42;100.00;99974.50;5055562;28;20028;-40
2024/03/02 04:51:09;;;;;;;1.20;0.47;;;;;;;6.39;100.00;99962.38;5055535;28;20032;-40
2024/03/02 04:53:35;;;;;;;2.90;0.47;;;;;;;6.40;100.00;99955.94;5055413;28;20025;-40
2024/03/02 04:58:57;;;;;;;0.93;0.38;;;;;;;6.50;100.00;99979.59;5043145;28;20813;-40
2024/03/02 05:01:23;;;;;;;1.33;0.50;;;;;;;6.50;100.00;99982.28;5055291;28;20048;-40
2024/03/02 05:03:48;;;;;;;0.80;0.40;;;;;;;6.53;100.00;99986.34;5055539;28;20025;-40
2024/03/02 05:06:14;;;;;;;1.90;0.50;;;;;;;6.53;100.00;99980.97;5055195;28;20071;-40
2024/03/02 05:08:39;;;;;;;0.80;0.30;;;;;;;6.41;100.00;99968.31;5056033;28;20557;-39
2024/03/02 05:14:06;;;;;;;1.05;0.40;;;;;;;6.48;100.00;99975.47;5033003;28;20037;-39
2024/03/02 05:16:34;;;;;;;;;;;;;;;6.54;100.00;99983.47;5050702;28;20047;-40
2024/03/02 05:19:00;;;;;;;0.73;0.32;;;;;;;6.41;100.00;99973.69;5055189;28;19909;-40
2024/03/02 05:21:25;;;;;;;1.33;0.35;;;;;;;6.44;100.00;99975.09;5054817;28;20350;-40
2024/03/02 05:23:50;;;;;;;0.83;0.40;;;;;;;6.43;100.00;99979.66;5055413;28;20063;-40
2024/03/02 05:26:16;;;;;;;0.93;0.40;;;;;;;6.41;100.00;99984.44;5054970;28;20051;-39
2024/03/02 05:28:41;;;;;;;0.90;0.40;;;;;;;6.38;100.00;99984.88;5055069;28;20016;-40
2024/03/02 05:31:10;;;;;;;0.60;0.50;;;;;;;6.36;100.00;99996.91;5054661;28;20373;-40
2024/03/02 05:33:37;;;;;;;1.17;0.45;;;;;;;6.32;100.00;99996.50;5054963;28;20039;-40
2024/03/02 05:36:04;;;;;;;1.05;0.45;;;;;;;6.36;100.00;100004.94;5054519;28;20021;-40
2024/03/02 05:38:29;;;;;;;0.77;0.45;;;;;;;6.36;100.00;100004.94;5054843;28;20087;-40
2024/03/02 05:40:55;;;;;;;1.30;0.47;;;;;;;6.36;100.00;100016.50;5054527;28;20124;-40
2024/03/02 05:43:20;;;;;;;0.70;0.30;;;;;;;6.35;100.00;100009.50;5054582;28;20300;-40
2024/03/02 05:45:45;;;;;;;2.50;0.40;;;;;;;6.33;100.00;100013.44;5054431;28;20025;-39
2024/03/02 05:48:11;;;;;;;0.73;0.30;;;;;;;6.34;100.00;100026.63;5055214;28;20028;-39
2024/03/02 05:50:36;;;;;;;1.20;0.40;;;;;;;6.30;100.00;100019.28;5054675;28;20020;-39
2024/03/02 05:53:01;;;;;;;1.10;0.40;;;;;;;6.35;100.00;100022.13;5053991;28;20025;-39
2024/03/02 05:55:27;;;;;;;2.33;0.50;;;;;;;6.28;100.00;100000.69;5054697;28;20123;-39
2024/03/02 06:00:23;;;;;;;1.30;0.40;;;;;;;6.40;100.00;100017.72;5053901;28;20029;-39
2024/03/02 06:02:48;;;;;;;1.57;0.50;;;;;;;6.39;100.00;100020.59;5053772;28;20432;-39
2024/03/02 06:05:15;;;;;;;2.37;0.60;;;;;;;6.45;100.00;100033.16;5054121;28;20096;-39
2024/03/02 06:07:40;;;;;;;1.38;0.50;;;;;;;6.32;100.00;100006.44;5053961;28;20045;-39
2024/03/02 06:10:07;;;;;;;0.60;0.32;;;;;;;6.45;100.00;100017.84;5054013;28;20083;-39
2024/03/02 06:12:32;;;;;;;1.38;0.30;;;;;;;6.43;100.00;100025.28;5054112;28;20100;-38
2024/03/02 06:14:58;;;;;;;0.52;0.30;;;;;;;6.45;100.00;100033.97;5054083;28;20480;-38
2024/03/02 06:17:23;;;;;;;0.80;0.32;;;;;;;6.42;100.00;100031.72;5053321;28;20024;-39
2024/03/02 06:19:48;;;;;;;1.30;0.47;;;;;;;6.42;100.00;100034.41;5053664;28;20095;-39
2024/03/02 06:22:14;;;;;;;0.60;0.30;;;;;;;6.43;100.00;100041.41;5053152;28;20433;-39
2024/03/02 06:24:39;;;;;;;1.03;0.37;;;;;;;6.41;100.00;100038.13;5053072;28;20055;-39
2024/03/02 06:27:05;;;;;;;0.87;0.40;;;;;;;6.42;100.00;100034.41;5054131;28;20046;-39
2024/03/02 06:29:33;;;;;;;1.88;1.00;;;;;;;6.42;100.00;100037.09;5053847;28;20053;-39
2024/03/02 06:31:58;;;;;;;2.55;1.10;;;;;;;6.41;100.00;100035.47;5053056;28;20017;-39
2024/03/02 06:34:23;;;;;;;3.07;1.10;;;;;;;6.35;100.00;100022.94;5053772;28;20082;-40
2024/03/02 06:36:49;;;;;;;1.97;1.10;;;;;;;6.40;100.00;100046.44;5053565;28;20103;-40
2024/03/02 06:39:14;;;;;;;1.70;0.80;;;;;;;6.38;100.00;100038.56;5053232;28;20052;-40
2024/03/02 06:41:39;;;;;;;1.73;0.87;;;;;;;6.37;100.00;100047.69;5053136;28;20025;-40
2024/03/02 06:44:06;;;;;;;2.37;0.63;;;;;;;6.35;100.00;100043.59;5053145;28;20029;-39
2024/03/02 06:46:31;;;;;;;4.50;0.80;;;;;;;6.35;100.00;100049.78;5053289;28;20021;-39
2024/03/02 06:48:57;;;;;;;1.65;0.80;;;;;;;6.37;100.00;100046.88;5053116;28;20021;-39
2024/03/02 06:51:23;;;;;;;1.83;0.80;;;;;;;6.30;100.00;100046.94;5053823;28;20044;-41
2024/03/02 06:53:48;;;;;;;1.73;0.57;;;;;;;6.29;100.00;100041.78;5054065;28;20055;-40
2024/03/02 06:56:13;;;;;;;2.50;0.75;;;;;;;6.38;100.00;100060.06;5053356;28;20045;-38
2024/03/02 06:58:39;;;;;;;1.23;0.60;;;;;;;6.42;100.00;100065.81;5054113;28;20049;-38
2024/03/02 07:01:04;;;;;;;1.93;0.57;;;;;;;6.43;100.00;100059.41;5053164;28;20638;-39
2024/03/02 07:03:30;;;;;;;3.67;1.10;;;;;;;6.45;100.00;100065.38;5053514;28;20077;-39
2024/03/02 07:05:55;;;;;;;3.40;1.37;;;;;;;6.48;100.00;100069.47;5053145;28;20036;-39
2024/03/02 07:08:20;;;;;;;3.27;0.90;;;;;;;6.50;100.00;100076.28;5053231;28;20021;-39
2024/03/02 07:10:46;;;;;;;4.17;1.87;;;;;;;6.51;100.00;100080.59;5053441;28;20024;-39
2024/03/02 07:13:12;;;;;;;3.35;1.65;;;;;;;6.51;100.00;100075.22;5053115;28;20021;-39
2024/03/02 07:18:12;;;;;;;4.38;1.20;;;;;;;6.62;100.00;100073.66;5057524;28;20033;-39
2024/03/02 07:20:38;;;;;;;3.57;0.93;;;;;;;6.67;100.00;100079.19;5057971;28;20028;-41
2024/03/02 07:23:04;;;;;;;;;;;;;;;6.78;100.00;100083.78;5057522;28;20601;-39
2024/03/02 07:25:29;;;;;;;2.65;0.80;;;;;;;6.73;100.00;100089.03;5057133;28;19930;-40
2024/03/02 07:27:55;;;;;;;1.67;0.77;;;;;;;6.77;100.00;100090.22;5055833;28;20155;-40
2024/03/02 07:30:20;;;;;;;0.90;0.57;;;;;;;6.82;100.00;100082.31;5057816;28;20021;-40
2024/03/02 07:32:46;;;;;;;3.87;0.70;;;;;;;6.86;100.00;100096.94;5056956;28;20071;-40
2024/03/02 07:35:14;;;;;;;1.90;0.70;;;;;;;6.86;100.00;100096.13;5057413;28;20043;-40
2024/03/02 07:37:41;;;;;;;1.05;0.50;;;;;;;6.83;100.00;100093.88;5056596;28;20457;-39
2024/03/02 07:40:11;;;;;;;1.60;0.80;;;;;;;6.85;100.00;100084.56;5056577;28;20055;-40
2024/03/02 07:42:37;;;;;;;2.92;0.77;;;;;;;6.89;100.00;100098.38;5056342;28;20434;-39
2024/03/02 07:45:02;;;;;;;1.65;0.80;;;;;;;6.85;100.00;100092.63;5056713;28;20095;-39
2024/03/02 07:47:27;;;;;;;1.47;0.87;;;;;;;6.83;100.00;100097.41;5056573;28;20082;-39
2024/03/02 07:49:53;;;;;;;1.57;0.80;;;;;;;6.76;100.00;100080.53;5056570;28;20259;-39
2024/03/02 07:52:18;;;;;;;2.67;1.03;;;;;;;6.79;100.00;100088.16;5057085;28;20021;-39
2024/03/02 07:54:43;;;;;;;3.23;1.20;;;;;;;6.74;100.00;100090.69;5056793;28;20133;-39
2024/03/02 07:57:09;;;;;;;2.73;0.87;;;;;;;6.71;100.00;100088.44;5057330;28;20039;-39
2024/03/02 07:59:34;;;;;;;2.25;0.70;;;;;;;6.64;100.00;100085.03;5056971;28;20056;-39
2024/03/02 08:02:00;;;;;;;1.90;0.50;;;;;;;6.70;100.00;100086.81;5056405;28;20024;-39
2024/03/02 08:04:26;;;;;;;2.53;0.68;;;;;;;6.66;100.00;100096.34;5056632;28;20074;-39
2024/03/02 08:06:51;;;;;;;3.22;1.23;;;;;;;6.72;100.00;100104.31;5056583;28;20396;-39
2024/03/02 08:09:16;;;;;;;2.07;0.63;;;;;;;6.71;100.00;100101.88;5056817;28;20029;-39
2024/03/02 08:11:42;;;;;;;2.67;0.67;;;;;;;6.75;100.00;100103.06;5056245;28;20044;-39
2024/03/02 08:14:07;;;;;;;5.57;0.80;;;;;;;6.81;100.00;100101.34;5056374;28;20337;-39
2024/03/02 08:16:33;;;;;;;2.67;0.87;;;;;;;6.84;100.00;100096.34;5055828;28;20442;-39
2024/03/02 08:18:59;;;;;;;3.55;0.68;;;;;;;6.96;100.00;100105.28;5056631;28;20259;-39
2024/03/02 08:21:25;;;;;;;2.90;0.70;;;;;;;7.04;100.00;100087.22;5056328;28;20032;-39
2024/03/02 08:23:50;;;;;;;4.07;0.85;;;;;;;7.16;100.00;100101.53;5055814;28;20025;-39
2024/03/02 08:26:16;;;;;;;2.45;0.88;;;;;;;7.27;100.00;100097.25;5056306;28;20055;-39
2024/03/02 08:28:41;;;;;;;2.95;0.60;;;;;;;7.31;100.00;100096.56;5056252;28;20033;-39
2024/03/02 08:31:07;;;;;;;2.95;0.73;;;;;;;7.46;100.00;100098.84;5056639;28;20492;-39
2024/03/02 08:33:33;;;;;;;1.80;0.60;;;;;;;7.49;100.00;100091.16;5055538;28;20025;-39
2024/03/02 08:35:59;;;;;;;3.05;0.88;;;;;;;7.58;100.00;100085.47;5056438;28;20025;-39
2024/03/02 08:38:24;;;;;;;4.47;0.90;;;;;;;7.69;100.00;100100.81;5055369;28;20526;-40
2024/03/02 08:40:50;;;;;;;2.60;0.73;;;;;;;7.68;100.00;100091.09;5055334;28;20071;-40
2024/03/02 08:43:15;;;;;;;2.27;0.87;;;;;;;7.80;100.00;100100.00;5055958;28;20445;-40
2024/03/02 08:45:41;;;;;;;3.33;0.77;;;;;;;7.85;100.00;100102.81;5055247;28;20276;-40
2024/03/02 08:48:09;;;;;;;3.40;0.70;;;;;;;7.86;100.00;100099.09;5055139;28;20263;-40
2024/03/02 08:50:35;;;;;;;1.30;0.60;;;;;;;7.99;100.00;100098.88;5055448;28;20063;-40
2024/03/02 08:53:01;;;;;;;3.28;0.70;;;;;;;8.05;100.00;100102.50;5055602;28;20056;-40
2024/03/02 08:55:26;;;;;;;2.13;0.80;;;;;;;8.13;100.00;100104.06;5055885;28;20033;-40
2024/03/02 08:57:51;;;;;;;2.70;0.80;;;;;;;8.14;100.00;100111.88;5055656;28;20075;-40
2024/03/02 09:00:17;;;;;;;2.88;0.70;;;;;;;8.12;100.00;100107.81;5055423;28;20063;-39
2024/03/02 09:02:44;;;;;;;3.03;0.80;;;;;;;8.27;100.00;100105.47;5055232;28;20476;-39
2024/03/02 09:05:09;;;;;;;2.45;1.15;;;;;;;8.34;100.00;100106.16;5055741;28;20369;-39
2024/03/02 09:07:35;;;;;;;3.63;0.60;;;;;;;8.35;100.00;100101.63;5055104;28;20077;-39
2024/03/02 09:10:00;;;;;;;2.37;0.60;;;;;;;8.40;100.00;100115.22;5054915;28;20036;-39
2024/03/02 09:12:26;;;;;;;2.93;1.00;;;;;;;8.38;100.00;100111.94;5055417;28;20056;-39
2024/03/02 09:14:51;;;;;;;3.45;1.10;;;;;;;8.47;100.00;100103.28;5055322;28;20070;-39
2024/03/02 09:17:16;;;;;;;2.90;0.83;;;;;;;8.55;100.00;100107.50;5054981;28;20027;-39
2024/03/02 09:19:42;;;;;;;2.60;0.60;;;;;;;8.61;100.00;100095.75;5055521;28;20025;-39
2024/03/02 09:22:07;;;;;;;3.53;0.80;;;;;;;8.67;100.00;100094.00;5054739;28;20108;-39
2024/03/02 09:24:35;;;;;;;2.63;0.70;;;;;;;8.75;100.00;100093.63;5055327;28;20407;-39
2024/03/02 09:27:01;;;;;;;3.75;0.73;;;;;;;8.85;100.00;100103.81;5055224;28;20104;-39
2024/03/02 09:29:26;;;;;;;3.50;1.00;;;;;;;8.92;100.00;100108.00;5054969;28;20407;-39
2024/03/02 09:31:51;;;;;;;3.67;0.80;;;;;;;9.03;100.00;100098.28;5054367;28;20036;-39
2024/03/02 09:34:17;;;;;;;4.90;1.03;;;;;;;9.11;100.00;100105.97;5054614;28;20286;-39
2024/03/02 09:36:43;;;;;;;3.25;1.20;;;;;;;9.12;100.00;100106.78;5055058;28;20104;-40
2024/03/02 09:39:12;;;;;;;4.45;1.75;;;;;;;9.22;100.00;100107.84;5054545;28;20032;-39
2024/03/02 09:41:38;;;;;;;3.67;1.00;;;;;;;9.28;100.00;100106.06;5054417;28;20023;-39
2024/03/02 09:44:04;;;;;;;2.65;1.08;;;;;;;9.33;100.00;100106.16;5055180;28;20025;-39
2024/03/02 09:46:30;;;;;;;2.30;0.70;;;;;;;9.31;100.00;100100.16;5054647;28;20392;-39
2024/03/02 09:48:55;;;;;;;4.38;1.10;;;;;;;9.38;100.00;100102.72;5054302;28;20029;-39
2024/03/02 09:51:21;;;;;;;2.13;0.63;;;;;;;9.42;100.00;100107.41;5054642;28;20033;-40
2024/03/02 09:53:47;;;;;;;2.47;0.65;;;;;;;9.43;100.00;100098.25;5054065;28;20013;-40
2024/03/02 09:56:13;;;;;;;4.40;1.08;;;;;;;9.55;100.00;100101.69;5055337;28;20055;-40
2024/03/02 09:58:39;;;;;;;2.33;0.60;;;;;;;9.66;100.00;100101.88;5054139;28;20021;-40
2024/03/02 10:01:07;;;;;;;2.72;0.63;;;;;;;9.74;100.00;100104.19;5053880;28;20035;-40
2024/03/02 10:03:33;;;;;;;3.45;0.80;;;;;;;9.77;100.00;100103.72;5054647;28;20029;-40
2024/03/02 10:06:18;;;;;;;;;;;;;;;9.89;100.00;100103.63;5054760;28;20027;-40
2024/03/02 10:08:44;;;;;;;3.67;1.17;;;;;;;9.89;100.00;100093.63;5054317;28;19904;-40
2024/03/02 10:11:09;;;;;;;2.38;0.82;;;;;;;9.89;100.00;100100.94;5053968;28;20513;-40
2024/03/02 10:13:34;;;;;;;3.70;0.80;;;;;;;9.93;100.00;100085.88;5054307;28;20476;-40
2024/03/02 10:16:11;;;;;;;1.63;0.63;;;;;;;10.05;100.00;100092.84;5053606;28;20283;-40
2024/03/02 10:18:37;;;;;;;4.53;0.73;;;;;;;10.11;100.00;100087.53;5054151;28;20035;-40
2024/03/02 10:21:15;;;;;;;3.40;0.90;;;;;;;10.18;100.00;100077.34;5053780;28;20021;-40
2024/03/02 10:23:40;;;;;;;4.35;0.90;;;;;;;10.19;100.00;100065.47;5054347;28;20025;-40
2024/03/02 10:26:26;;;;;;;4.63;1.00;;;;;;;10.31;100.00;100074.34;5053749;28;20476;-40
2024/03/02 10:28:59;;;;;;;1.88;0.60;;;;;;;10.31;100.00;100075.16;5053346;28;20041;-39
2024/03/02 10:31:27;;;;;;;2.40;0.85;;;;;;;10.37;100.00;100075.25;5053968;28;20360;-39
2024/03/02 10:33:54;;;;;;;2.53;1.00;;;;;;;10.43;100.00;100075.06;5053614;28;20059;-39
2024/03/02 10:36:20;;;;;;;5.45;1.35;;;;;;;10.54;100.00;100063.34;5053501;28;20029;-39
2024/03/02 10:38:47;;;;;;;2.38;0.90;;;;;;;10.62;100.00;100063.97;5053566;28;20021;-39
2024/03/02 10:41:17;;;;;;;4.05;0.70;;;;;;;10.68;100.00;100066.47;5053432;28;20029;-39
2024/03/02 10:43:43;;;;;;;4.32;1.02;;;;;;;10.64;99.03;100062.66;5053151;28;20519;-39
2024/03/02 10:46:10;;;;;;;2.38;0.90;;;;;;;10.75;100.00;100063.59;5053448;28;20024;-39
2024/03/02 10:48:39;;;;;;;4.85;0.80;;;;;;;10.80;100.00;100064.47;5053412;28;20021;-39
2024/03/02 10:51:05;;;;;;;2.95;0.93;;;;;;;10.90;100.00;100055.66;5053189;28;20021;-39
2024/03/02 10:53:30;;;;;;;2.83;0.95;;;;;;;10.91;97.58;100049.19;5053310;28;20031;-39
2024/03/02 10:56:04;;;;;;;2.88;0.68;;;;;;;11.04;98.66;100064.22;5053640;28;20334;-39
2024/03/02 10:58:35;;;;;;;2.40;0.73;;;;;;;11.04;95.47;100062.34;5053281;28;20445;-39
2024/03/02 11:01:03;;;;;;;3.03;0.90;;;;;;;11.06;96.39;100052.06;5053563;28;20025;-40
2024/03/02 11:03:32;;;;;;;2.30;0.65;;;;;;;11.05;94.59;100052.31;5053366;28;20025;-41
2024/03/02 11:05:59;;;;;;;2.42;0.65;;;;;;;11.22;96.53;100055.75;5053553;28;20468;-39
2024/03/02 11:08:26;;;;;;;2.30;0.82;;;;;;;11.31;98.21;100056.94;5053702;28;20052;-40
2024/03/02 11:10:57;;;;;;;3.22;0.95;;;;;;;11.32;95.14;100065.88;5053164;28;20439;-40
2024/03/02 11:13:31;;;;;;;3.00;1.00;;;;;;;11.38;93.29;100048.63;5052882;28;20036;-40
2024/03/02 11:16:24;;;;;;;2.85;0.90;;;;;;;11.39;92.61;100052.97;5053158;28;20025;-40
2024/03/02 11:18:50;;;;;;;3.20;0.90;;;;;;;11.37;91.23;100047.00;5052817;28;20024;-39
2024/03/02 11:21:16;;;;;;;2.78;0.80;;;;;;;11.52;93.69;100044.44;5052839;28;20017;-39
2024/03/02 11:23:42;;;;;;;3.10;0.70;;;;;;;11.55;93.63;100040.38;5052860;28;20021;-39
2024/03/02 11:26:21;;;;;;;3.17;0.93;;;;;;;11.66;92.63;100038.56;5053032;28;20025;-39
2024/03/02 11:28:46;;;;;;;2.97;0.73;;;;;;;11.71;92.34;100034.03;5053831;28;20369;-40
2024/03/02 11:31:12;;;;;;;3.17;1.00;;;;;;;11.59;88.62;100042.31;5052943;28;20033;-39
2024/03/02 11:33:37;;;;;;;2.92;0.98;;;;;;;11.56;91.27;100040.13;5053854;28;20029;-39
2024/03/02 11:36:03;;;;;;;2.08;0.70;;;;;;;11.46;90.30;100036.50;5052860;28;20529;-39